Airfield :
LOGIN :

Register | Disclaimer

   EN    FR    IT 

 










Legend :    VFR   Marginal VFR   IFR   Intensive IFR   Very Intensive IFR
Visi :
Ceiling :
>= 8 km
>= 3000ft
5 to 8 km
1000 to 3000 ft
1500m to 5 km
500 to 1000 ft
800 to 1500m
200 to 500 ft
< 800m
< 200 ft
Symbols :   Thunderstorms  Fog  Heavy snow  Heavy precipitations  Wind > 20 kt
SIGMETs :     Misc.  Thunderstorms  Icing  Turbulence  Mountain Waves  Volcanic Ashes






- Airport Elevation : 202 ft
- IATA code : LGW


EGKK - London Gatwick

CURRENT METAR :
  • 112120Z VRB02KT CAVOK 02/02 Q1003

EXPIRED METARs :
  • 112050Z VRB03KT CAVOK 03/02 Q1003
  • 112020Z 26005KT CAVOK 03/02 Q1003
  • 111950Z 25006KT CAVOK 03/02 Q1002
  • 111920Z 25005KT CAVOK 04/03 Q1002
  • 111850Z 25007KT CAVOK 04/03 Q1002

TAF TAF EGKK
Valid from the 11 at 18:00 until the 13 at 00:00 UTC


111656Z 1118/1224 24005KT 9999 SCT035
TEMPO 1123/1208 6000
PROB30
TEMPO 1201/1207 0300 FZFG BKN001
BECMG 1209/1212 17013KT BKN012
PROB40
TEMPO 1209/1211 7000 -RA
TEMPO 1211/1220 17016G26KT 4000 RA BKN007
BECMG 1218/1221 23010KT BKN016
PROB40
TEMPO 1220/1224 5000 SHRA BKN012



MET'MAP, your aeronautical weather chart ! - Copyright ORBIFLY December 2007 - Disclaimer

ORBIFLY MET'MAP TEAM :

Programming & Development : Alexandra Zaïnal
Concept & original design : Baudouin d'Aumeries
Assistance for programming : Marc-Olivier Méhu
Technical & hardware support : Manuel Goepfert

Contact : metmap@orbifly.com




SOURCES & CREDITS :

   NOAA